Time;durP1;ratioP1;P1;durP2;ratioP2;P2;SDS_P1;SDS_P2;PMS_P1;PMS_P2;Temp;Humidity;BMP_temperature;BMP_pressure;BME280_temperature;BME280_humidity;BME280_pressure;Samples;Min_cycle;Max_cycle;Signal;HPM_P1;HPM_P2
2022/02/28 00:05:39;;;;;;;8.10;3.20;;;;;;;;;;4900782;23;20714;-87
2022/02/28 00:24:47;;;;;;;8.30;2.80;;;;;;;;;;4802427;29;20031;-86
2022/02/28 00:40:47;;;;;;;;;;;;;;;;;;;;;
2022/02/28 00:50:02;;;;;;;7.80;2.87;;;;;;;;;;4842352;29;20743;-85
2022/02/28 00:59:09;;;;;;;8.80;3.37;;;;;;;;;;4812684;29;20490;-85
2022/02/28 01:01:38;;;;;;;6.97;3.10;;;;;;;;;;4801519;29;20054;-85
2022/02/28 01:07:47;;;;;;;9.07;3.30;;;;;;;;;;4838640;29;20067;-85
2022/02/28 01:10:42;;;;;;;13.03;3.13;;;;;;;;;;4817904;29;20046;-85
2022/02/28 01:13:33;;;;;;;9.90;3.13;;;;;;;;;;4836200;29;20046;-85
2022/02/28 01:16:35;;;;;;;;;;;;;;;;;;;;;
2022/02/28 01:19:25;;;;;;;9.88;3.50;;;;;;;;;;4801655;29;20030;-85
2022/02/28 01:25:40;;;;;;;;;;;;;;;;;;;;;
2022/02/28 01:35:10;;;;;;;;;;;;;;;;;;;;;
2022/02/28 01:41:27;;;;;;;9.83;3.07;;;;;;;;;;4838074;29;21571;-86
2022/02/28 01:44:43;;;;;;;8.73;3.43;;;;;;;;;;4791351;29;20064;-86
2022/02/28 01:50:51;;;;;;;8.60;3.47;;;;;;;;;;4838762;29;20033;-85
2022/02/28 01:57:13;;;;;;;;;;;;;;;;;;;;;
2022/02/28 01:59:51;;;;;;;8.70;2.70;;;;;;;;;;4821694;29;20044;-85
2022/02/28 02:02:46;;;;;;;9.70;3.20;;;;;;;;;;4821646;29;20117;-85
2022/02/28 02:05:48;;;;;;;6.83;3.03;;;;;;;;;;4786777;29;20139;-86
2022/02/28 02:11:58;;;;;;;10.37;3.10;;;;;;;;;;4822689;29;20058;-86
2022/02/28 02:14:43;;;;;;;6.60;2.70;;;;;;;;;;4820519;29;20060;-84
2022/02/28 02:20:24;;;;;;;10.47;3.23;;;;;;;;;;4816091;29;20396;-85
2022/02/28 02:23:27;;;;;;;;;;;;;;;;;;;;;
2022/02/28 02:26:02;;;;;;;7.17;3.27;;;;;;;;;;4822008;29;20027;-85
2022/02/28 02:31:55;;;;;;;4.80;2.15;;;;;;;;;;4822416;29;20463;-85
2022/02/28 02:34:48;;;;;;;8.73;3.30;;;;;;;;;;4821912;29;20038;-85
2022/02/28 02:37:44;;;;;;;14.40;3.30;;;;;;;;;;4832644;29;20034;-85
2022/02/28 02:40:13;;;;;;;6.47;2.87;;;;;;;;;;4834322;29;20042;-84
2022/02/28 02:42:52;;;;;;;7.40;3.07;;;;;;;;;;4838502;29;20477;-86
2022/02/28 02:45:27;;;;;;;9.10;3.23;;;;;;;;;;4830860;29;20098;-85
2022/02/28 02:48:11;;;;;;;;;;;;;;;;;;;;;
2022/02/28 02:50:55;;;;;;;;;;;;;;;;;;4822510;29;20639;-86
2022/02/28 02:53:47;;;;;;;;;;;;;;;;;;;;;
2022/02/28 02:56:29;;;;;;;8.20;3.13;;;;;;;;;;4820596;29;20580;-85
2022/02/28 02:59:28;;;;;;;;;;;;;;;;;;;;;
2022/02/28 03:01:55;;;;;;;6.07;2.63;;;;;;;;;;4821561;29;20030;-86
2022/02/28 03:04:21;;;;;;;7.83;3.10;;;;;;;;;;4820434;29;20103;-85
2022/02/28 03:06:52;;;;;;;10.47;3.60;;;;;;;;;;4820808;29;20061;-86
2022/02/28 03:12:48;;;;;;;6.45;2.85;;;;;;;;;;4821408;29;20445;-84
2022/02/28 03:15:17;;;;;;;8.60;3.20;;;;;;;;;;4820199;29;20030;-85
2022/02/28 03:17:43;;;;;;;6.53;2.93;;;;;;;;;;4825708;29;20031;-84
2022/02/28 03:20:35;;;;;;;8.30;3.00;;;;;;;;;;4817235;29;20400;-85
2022/02/28 03:23:33;;;;;;;7.43;3.25;;;;;;;;;;4820571;29;20141;-85
2022/02/28 03:26:00;;;;;;;12.93;2.93;;;;;;;;;;4817398;29;20346;-85
2022/02/28 03:28:28;;;;;;;8.63;3.13;;;;;;;;;;4821620;29;20086;-85
2022/02/28 03:34:01;;;;;;;9.13;3.17;;;;;;;;;;4829862;29;20071;-83
2022/02/28 03:37:11;;;;;;;9.30;3.33;;;;;;;;;;4912385;23;20083;-83
2022/02/28 03:40:15;;;;;;;7.80;3.20;;;;;;;;;;4916486;29;20039;-83
2022/02/28 03:43:07;;;;;;;;;;;;;;;;;;;;;
2022/02/28 03:46:29;;;;;;;;;;;;;;;;;;;;;
2022/02/28 03:48:51;;;;;;;7.13;3.20;;;;;;;;;;4912742;29;20036;-85
2022/02/28 03:51:33;;;;;;;9.83;3.97;;;;;;;;;;4914887;29;20518;-84
2022/02/28 03:54:25;;;;;;;8.07;3.60;;;;;;;;;;4904496;29;20097;-84
2022/02/28 03:57:43;;;;;;;8.38;3.22;;;;;;;;;;4913126;29;20272;-84
2022/02/28 04:03:46;;;;;;;12.50;4.35;;;;;;;;;;4850754;29;20055;-84
2022/02/28 04:06:43;;;;;;;8.07;3.10;;;;;;;;;;4870763;29;20067;-82
2022/02/28 04:09:13;;;;;;;8.43;3.23;;;;;;;;;;4857754;29;20150;-83
2022/02/28 04:11:55;;;;;;;9.57;3.73;;;;;;;;;;4886632;29;20044;-83
2022/02/28 04:14:45;;;;;;;6.23;3.13;;;;;;;;;;4913821;29;20040;-83
2022/02/28 04:26:26;;;;;;;;;;;;;;;;;;;;;
2022/02/28 04:32:20;;;;;;;12.53;3.83;;;;;;;;;;4912196;29;20417;-83
2022/02/28 04:34:49;;;;;;;8.10;3.43;;;;;;;;;;4915491;29;20036;-83
2022/02/28 04:41:04;;;;;;;10.50;3.90;;;;;;;;;;4873139;29;20037;-82
2022/02/28 04:43:51;;;;;;;;;;;;;;;;;;;;;
2022/02/28 04:46:41;;;;;;;8.33;3.63;;;;;;;;;;4919095;29;20568;-82
2022/02/28 04:49:18;;;;;;;10.83;4.10;;;;;;;;;;4933385;29;20457;-83
2022/02/28 04:52:11;;;;;;;10.50;3.50;;;;;;;;;;4910813;29;20025;-82
2022/02/28 04:54:40;;;;;;;;;;;;;;;;;;4906228;29;20044;-82
2022/02/28 05:04:09;;;;;;;9.80;3.70;;;;;;;;;;4890773;29;20033;-83
2022/02/28 05:09:33;;;;;;;11.45;3.78;;;;;;;;;;4913605;29;20035;-83
2022/02/28 05:12:01;;;;;;;;;;;;;;;;;;4915866;29;20073;-82
2022/02/28 05:17:48;;;;;;;8.80;3.53;;;;;;;;;;4887091;29;20044;-82
2022/02/28 05:20:40;;;;;;;10.40;4.05;;;;;;;;;;4891418;29;20128;-82
2022/02/28 05:23:22;;;;;;;10.70;4.03;;;;;;;;;;4833439;29;20037;-83
2022/02/28 05:25:59;;;;;;;9.35;3.42;;;;;;;;;;4910100;29;20040;-83
2022/02/28 05:28:49;;;;;;;7.70;3.20;;;;;;;;;;4917791;29;20024;-83
2022/02/28 05:34:53;;;;;;;;;;;;;;;;;;;;;
2022/02/28 05:37:54;;;;;;;10.10;3.07;;;;;;;;;;4909312;29;20035;-83
2022/02/28 05:40:39;;;;;;;;;;;;;;;;;;;;;
2022/02/28 05:43:30;;;;;;;10.20;4.50;;;;;;;;;;4887556;29;20054;-82
2022/02/28 05:46:00;;;;;;;10.50;4.00;;;;;;;;;;4904216;29;20040;-83
2022/02/28 05:48:31;;;;;;;10.20;3.70;;;;;;;;;;4908574;29;20168;-83
2022/02/28 05:51:31;;;;;;;9.60;4.63;;;;;;;;;;4908180;29;20024;-83
2022/02/28 05:54:00;;;;;;;9.80;3.57;;;;;;;;;;4887543;29;20064;-83
2022/02/28 05:56:55;;;;;;;9.80;3.50;;;;;;;;;;4900283;29;20041;-84
2022/02/28 05:59:50;;;;;;;11.07;4.17;;;;;;;;;;4899723;29;20502;-83
2022/02/28 06:05:36;;;;;;;;;;;;;;;;;;;;;
2022/02/28 06:08:27;;;;;;;11.30;4.63;;;;;;;;;;4907187;29;20028;-84
2022/02/28 06:11:11;;;;;;;12.87;3.97;;;;;;;;;;4906214;29;20121;-83
2022/02/28 06:13:49;;;;;;;8.70;3.50;;;;;;;;;;4907604;29;20385;-82
2022/02/28 06:16:38;;;;;;;8.17;3.63;;;;;;;;;;4912598;29;20024;-82
2022/02/28 06:22:33;;;;;;;;;;;;;;;;;;;;;
2022/02/28 06:25:00;;;;;;;9.33;4.03;;;;;;;;;;4909952;29;20036;-82
2022/02/28 06:27:33;;;;;;;11.13;4.00;;;;;;;;;;4916185;29;20015;-84
2022/02/28 06:30:35;;;;;;;10.30;4.27;;;;;;;;;;4907643;29;20340;-84
2022/02/28 06:33:13;;;;;;;13.13;3.83;;;;;;;;;;4888354;29;20135;-85
2022/02/28 06:35:59;;;;;;;9.00;3.60;;;;;;;;;;4896580;29;20104;-84
2022/02/28 06:39:01;;;;;;;13.07;4.10;;;;;;;;;;4915392;29;20065;-84
2022/02/28 06:41:39;;;;;;;9.90;4.10;;;;;;;;;;4879195;29;20513;-84
2022/02/28 06:44:15;;;;;;;9.63;3.37;;;;;;;;;;4911676;29;20072;-84
2022/02/28 06:47:07;;;;;;;12.23;3.93;;;;;;;;;;4914488;29;20045;-84
2022/02/28 06:49:36;;;;;;;11.40;3.75;;;;;;;;;;4909129;29;20032;-84
2022/02/28 06:52:25;;;;;;;11.67;3.83;;;;;;;;;;4910379;29;20032;-84
2022/02/28 06:55:16;;;;;;;12.63;3.87;;;;;;;;;;4911418;29;20031;-85
2022/02/28 06:57:45;;;;;;;8.70;3.47;;;;;;;;;;4906422;29;20143;-84
2022/02/28 07:00:57;;;;;;;9.53;4.27;;;;;;;;;;4895023;29;20135;-84
2022/02/28 07:03:27;;;;;;;8.63;3.50;;;;;;;;;;4894588;29;20032;-85
2022/02/28 07:06:40;;;;;;;9.93;3.80;;;;;;;;;;4913098;29;20067;-84
2022/02/28 07:09:34;;;;;;;9.45;3.95;;;;;;;;;;4908700;29;20063;-84
2022/02/28 07:12:27;;;;;;;9.40;3.90;;;;;;;;;;4913588;29;20036;-85
2022/02/28 07:15:08;;;;;;;8.38;2.72;;;;;;;;;;4911179;29;21196;-86
2022/02/28 07:17:55;;;;;;;11.87;4.00;;;;;;;;;;4917120;29;20056;-85
2022/02/28 07:20:47;;;;;;;10.47;4.50;;;;;;;;;;4914811;29;20051;-85
2022/02/28 07:23:51;;;;;;;10.73;4.27;;;;;;;;;;4917961;29;20024;-87
2022/02/28 07:26:19;;;;;;;10.90;4.30;;;;;;;;;;4920820;29;20024;-86
2022/02/28 07:28:50;;;;;;;11.00;4.33;;;;;;;;;;4908259;29;20525;-86
2022/02/28 07:31:16;;;;;;;14.30;5.03;;;;;;;;;;4904953;29;20500;-85
2022/02/28 07:37:12;;;;;;;;;;;;;;;;;;;;;
2022/02/28 07:39:41;;;;;;;16.23;4.33;;;;;;;;;;4909288;29;20038;-85
2022/02/28 07:42:41;;;;;;;;;;;;;;;;;;;;;
2022/02/28 07:45:21;;;;;;;10.87;4.00;;;;;;;;;;4932726;23;20107;-84
2022/02/28 07:48:28;;;;;;;9.00;4.40;;;;;;;;;;4897621;29;20033;-84
2022/02/28 07:53:47;;;;;;;13.47;4.50;;;;;;;;;;4905062;29;20036;-84
2022/02/28 07:56:17;;;;;;;10.63;4.17;;;;;;;;;;4900093;29;20044;-84
2022/02/28 08:02:33;;;;;;;;;;;;;;;;;;;;;
2022/02/28 08:08:08;;;;;;;9.27;4.07;;;;;;;;;;4891499;29;20065;-84
2022/02/28 08:10:37;;;;;;;7.27;3.60;;;;;;;;;;4897516;29;20040;-84
2022/02/28 08:13:15;;;;;;;9.87;4.07;;;;;;;;;;4908502;29;20043;-84
2022/02/28 08:16:04;;;;;;;12.77;4.53;;;;;;;;;;4914536;29;20040;-84
2022/02/28 08:21:44;;;;;;;13.40;3.97;;;;;;;;;;4896800;29;20096;-84
2022/02/28 08:24:30;;;;;;;9.97;3.90;;;;;;;;;;4897332;29;20092;-85
2022/02/28 08:26:57;;;;;;;13.77;3.93;;;;;;;;;;4898183;29;20104;-84
2022/02/28 08:29:31;;;;;;;11.73;4.47;;;;;;;;;;4897458;29;20450;-84
2022/02/28 08:32:20;;;;;;;;;;;;;;;;;;;;;
2022/02/28 08:35:07;;;;;;;10.53;3.90;;;;;;;;;;4900714;29;20123;-85
2022/02/28 08:37:37;;;;;;;10.43;4.27;;;;;;;;;;4900461;29;20051;-83
2022/02/28 08:40:18;;;;;;;8.87;4.00;;;;;;;;;;4903866;29;20032;-84
2022/02/28 08:42:50;;;;;;;8.27;4.03;;;;;;;;;;4904517;29;20062;-84
2022/02/28 08:45:25;;;;;;;9.18;3.55;;;;;;;;;;4898825;29;20036;-85
2022/02/28 08:47:59;;;;;;;11.20;4.50;;;;;;;;;;4899767;29;20033;-85
2022/02/28 08:50:28;;;;;;;8.47;3.90;;;;;;;;;;4908733;29;20097;-86
2022/02/28 08:53:17;;;;;;;9.30;3.50;;;;;;;;;;4915231;29;20071;-84
2022/02/28 08:56:39;;;;;;;10.47;4.23;;;;;;;;;;4878081;29;20032;-85
2022/02/28 08:59:14;;;;;;;10.00;3.53;;;;;;;;;;4850091;29;20041;-85
2022/02/28 09:10:53;;;;;;;8.77;3.47;;;;;;;;;;4901424;29;20028;-84
2022/02/28 09:13:33;;;;;;;12.33;4.40;;;;;;;;;;4917162;29;20047;-85
2022/02/28 09:16:39;;;;;;;9.30;3.57;;;;;;;;;;4908714;29;20075;-85
2022/02/28 09:19:43;;;;;;;9.17;4.07;;;;;;;;;;4884916;29;20041;-86
2022/02/28 09:22:22;;;;;;;;;;;;;;;;;;;;;
2022/02/28 09:25:28;;;;;;;;;;;;;;;;;;;;;
2022/02/28 09:28:14;;;;;;;9.73;3.37;;;;;;;;;;4903303;29;20092;-85
2022/02/28 09:31:04;;;;;;;10.20;3.13;;;;;;;;;;4896632;29;20089;-86
2022/02/28 09:33:49;;;;;;;6.93;3.43;;;;;;;;;;4905014;29;20052;-85
2022/02/28 09:36:23;;;;;;;8.03;3.17;;;;;;;;;;4965918;23;20247;-87
2022/02/28 09:39:21;;;;;;;;;;;;;;;;;;;;;
2022/02/28 09:54:18;;;;;;;7.30;3.50;;;;;;;;;;4912919;23;20064;-90
2022/02/28 09:56:48;;;;;;;7.90;3.63;;;;;;;;;;4914073;29;20036;-92
2022/02/28 09:59:18;;;;;;;8.03;3.33;;;;;;;;;;4911865;29;20044;-90
2022/02/28 10:01:47;;;;;;;9.47;3.93;;;;;;;;;;4913431;29;20488;-90
2022/02/28 10:04:14;;;;;;;9.03;3.33;;;;;;;;;;4909833;29;20024;-89
2022/02/28 10:06:48;;;;;;;8.53;3.10;;;;;;;;;;4911430;29;20024;-90
2022/02/28 10:09:19;;;;;;;6.80;3.10;;;;;;;;;;4911340;29;20087;-88
2022/02/28 10:11:50;;;;;;;8.27;3.63;;;;;;;;;;4907827;29;20042;-89
2022/02/28 10:14:17;;;;;;;9.82;3.38;;;;;;;;;;4913005;29;20131;-89
2022/02/28 10:16:50;;;;;;;7.10;3.33;;;;;;;;;;4911298;29;20032;-89
2022/02/28 10:19:37;;;;;;;6.73;3.37;;;;;;;;;;4911764;29;20070;-89
2022/02/28 10:22:06;;;;;;;8.03;3.57;;;;;;;;;;4909647;29;20110;-89
2022/02/28 10:24:43;;;;;;;9.63;3.43;;;;;;;;;;4928228;29;20051;-91
2022/02/28 10:27:15;;;;;;;6.73;3.20;;;;;;;;;;4909450;29;20047;-90
2022/02/28 10:29:42;;;;;;;8.05;3.63;;;;;;;;;;4909584;29;20056;-90
2022/02/28 10:32:12;;;;;;;7.03;3.27;;;;;;;;;;4914055;29;20036;-90
2022/02/28 10:37:25;;;;;;;6.63;2.93;;;;;;;;;;4906047;29;20119;-90
2022/02/28 10:40:02;;;;;;;9.23;3.43;;;;;;;;;;4913120;29;20099;-91
2022/02/28 10:42:44;;;;;;;8.60;3.43;;;;;;;;;;4910412;29;20048;-90
2022/02/28 10:45:12;;;;;;;;;;;;;;;;;;4909703;29;20032;-90
2022/02/28 10:47:52;;;;;;;8.83;3.67;;;;;;;;;;4908554;29;19907;-90
2022/02/28 10:50:35;;;;;;;10.27;3.73;;;;;;;;;;4913600;29;20024;-90
2022/02/28 10:53:02;;;;;;;;;;;;;;;;;;4913228;29;20051;-91
2022/02/28 10:55:35;;;;;;;6.20;3.20;;;;;;;;;;4912199;29;20287;-90
2022/02/28 10:58:11;;;;;;;10.20;3.90;;;;;;;;;;4919664;29;20542;-90
2022/02/28 11:00:59;;;;;;;10.17;4.03;;;;;;;;;;4923601;29;20108;-91
2022/02/28 11:03:27;;;;;;;8.17;3.40;;;;;;;;;;4913501;29;20035;-90
2022/02/28 11:05:58;;;;;;;8.53;3.93;;;;;;;;;;4912158;29;20036;-90
2022/02/28 11:08:27;;;;;;;8.93;4.23;;;;;;;;;;4910808;29;20040;-91
2022/02/28 11:10:55;;;;;;;8.17;3.73;;;;;;;;;;4907632;29;20176;-90
2022/02/28 11:13:21;;;;;;;6.60;3.37;;;;;;;;;;4902250;29;20032;-90
2022/02/28 11:15:48;;;;;;;11.17;3.90;;;;;;;;;;4902713;29;20028;-91
2022/02/28 11:18:20;;;;;;;8.80;3.83;;;;;;;;;;4901113;29;20517;-90
2022/02/28 11:20:49;;;;;;;8.05;3.88;;;;;;;;;;4913346;29;20035;-91
2022/02/28 11:23:19;;;;;;;7.80;3.57;;;;;;;;;;4913132;29;20112;-91
2022/02/28 11:25:50;;;;;;;9.20;3.50;;;;;;;;;;4908790;29;20025;-91
2022/02/28 11:28:17;;;;;;;8.10;3.13;;;;;;;;;;4910626;29;20123;-91
2022/02/28 11:30:48;;;;;;;8.37;3.10;;;;;;;;;;4908127;29;20166;-90
2022/02/28 11:33:18;;;;;;;7.47;3.43;;;;;;;;;;4909309;29;20115;-90
2022/02/28 11:35:49;;;;;;;9.60;3.97;;;;;;;;;;4909155;29;20793;-90
2022/02/28 11:38:19;;;;;;;10.80;4.37;;;;;;;;;;4910661;29;20078;-90
2022/02/28 11:40:51;;;;;;;9.43;4.00;;;;;;;;;;4912632;29;20033;-90
2022/02/28 11:43:18;;;;;;;8.10;3.42;;;;;;;;;;4925341;29;20032;-89
2022/02/28 11:45:50;;;;;;;6.67;3.20;;;;;;;;;;4906183;29;20025;-90
2022/02/28 11:48:18;;;;;;;;;;;;;;;;;;4900746;29;20033;-89
2022/02/28 11:51:13;;;;;;;6.83;2.80;;;;;;;;;;4915600;29;19922;-90
2022/02/28 11:53:44;;;;;;;7.70;3.30;;;;;;;;;;4897192;29;20044;-90
2022/02/28 11:56:17;;;;;;;7.03;3.50;;;;;;;;;;4915761;29;20104;-90
2022/02/28 11:59:06;;;;;;;10.17;3.67;;;;;;;;;;4915941;29;20052;-89
2022/02/28 12:01:34;;;;;;;8.30;3.80;;;;;;;;;;4905585;29;20043;-89
2022/02/28 12:04:19;;;;;;;10.57;3.40;;;;;;;;;;4913965;29;20038;-90
2022/02/28 12:06:51;;;;;;;8.13;2.87;;;;;;;;;;4914271;29;20024;-91
2022/02/28 12:09:35;;;;;;;7.82;3.20;;;;;;;;;;4914986;29;20032;-91
2022/02/28 12:12:20;;;;;;;7.00;2.93;;;;;;;;;;4925657;29;20448;-90
2022/02/28 12:15:00;;;;;;;7.93;3.80;;;;;;;;;;4912116;29;20055;-90
2022/02/28 12:17:38;;;;;;;8.00;3.23;;;;;;;;;;4906264;29;20042;-89
2022/02/28 12:20:14;;;;;;;9.45;3.35;;;;;;;;;;4906660;29;20040;-89
2022/02/28 12:22:55;;;;;;;7.93;3.20;;;;;;;;;;4912092;29;20149;-89
2022/02/28 12:25:30;;;;;;;7.30;3.30;;;;;;;;;;4910555;29;20040;-89
2022/02/28 12:27:57;;;;;;;9.23;3.65;;;;;;;;;;4913406;29;20028;-89
2022/02/28 12:30:38;;;;;;;7.77;3.20;;;;;;;;;;4910550;29;20028;-89
2022/02/28 12:33:05;;;;;;;9.00;3.95;;;;;;;;;;4910905;29;20525;-88
2022/02/28 12:35:37;;;;;;;7.15;3.53;;;;;;;;;;4912920;29;20032;-88
2022/02/28 12:38:03;;;;;;;8.75;3.55;;;;;;;;;;4912892;29;20055;-90
2022/02/28 12:40:30;;;;;;;4.75;2.42;;;;;;;;;;4908731;29;20127;-90
2022/02/28 12:42:57;;;;;;;6.40;3.00;;;;;;;;;;4913470;29;20032;-89
2022/02/28 12:45:23;;;;;;;6.55;2.70;;;;;;;;;;4913219;29;20058;-89
2022/02/28 12:47:51;;;;;;;7.43;2.65;;;;;;;;;;4912977;29;20087;-90
2022/02/28 12:50:21;;;;;;;7.05;2.85;;;;;;;;;;4912310;29;20135;-90
2022/02/28 12:52:51;;;;;;;8.82;3.13;;;;;;;;;;4904974;29;20043;-89
2022/02/28 12:55:17;;;;;;;8.15;3.40;;;;;;;;;;4907427;29;20549;-89
2022/02/28 12:57:43;;;;;;;7.03;3.40;;;;;;;;;;4913691;29;20028;-90
2022/02/28 13:00:10;;;;;;;6.20;2.67;;;;;;;;;;4913440;29;20107;-90
2022/02/28 13:02:37;;;;;;;6.88;2.85;;;;;;;;;;4909519;29;20122;-88
2022/02/28 13:05:03;;;;;;;7.65;2.75;;;;;;;;;;4908758;29;20029;-90
2022/02/28 13:07:31;;;;;;;5.20;2.50;;;;;;;;;;4911646;29;20032;-91
2022/02/28 13:09:57;;;;;;;5.78;2.63;;;;;;;;;;4911420;29;20024;-88
2022/02/28 13:12:27;;;;;;;5.93;2.40;;;;;;;;;;4911592;29;20525;-90
2022/02/28 13:14:56;;;;;;;6.65;2.70;;;;;;;;;;4911719;29;20699;-88
2022/02/28 13:17:23;;;;;;;6.07;2.97;;;;;;;;;;4911897;29;20433;-88
2022/02/28 13:19:50;;;;;;;7.00;3.00;;;;;;;;;;4912815;29;20552;-89
2022/02/28 13:22:24;;;;;;;6.53;2.70;;;;;;;;;;4914670;29;20202;-89
2022/02/28 13:24:50;;;;;;;7.38;2.38;;;;;;;;;;4910733;29;20357;-89
2022/02/28 13:27:18;;;;;;;6.30;2.75;;;;;;;;;;4914985;29;20038;-89
2022/02/28 13:29:44;;;;;;;13.80;6.10;;;;;;;;;;4914022;29;20401;-91
2022/02/28 13:32:12;;;;;;;11.63;5.40;;;;;;;;;;4911437;29;20032;-88
2022/02/28 13:34:38;;;;;;;12.18;4.78;;;;;;;;;;4913120;29;20119;-91
2022/02/28 13:37:05;;;;;;;8.88;3.20;;;;;;;;;;4907392;29;20032;-90
2022/02/28 13:39:38;;;;;;;5.63;2.67;;;;;;;;;;4909559;29;20036;-88
2022/02/28 13:42:11;;;;;;;6.55;3.00;;;;;;;;;;4915022;29;20035;-89
2022/02/28 13:44:38;;;;;;;5.18;2.40;;;;;;;;;;4910410;29;20028;-90
2022/02/28 13:47:05;;;;;;;7.82;3.42;;;;;;;;;;4912888;29;20055;-90
2022/02/28 13:49:33;;;;;;;6.50;3.30;;;;;;;;;;4908968;29;20032;-89
2022/02/28 13:51:59;;;;;;;6.43;2.45;;;;;;;;;;4910333;29;20035;-90
2022/02/28 13:54:25;;;;;;;9.45;2.97;;;;;;;;;;4911480;29;20036;-90
2022/02/28 13:56:51;;;;;;;7.03;2.63;;;;;;;;;;4913350;29;20135;-90
2022/02/28 13:59:18;;;;;;;4.55;2.55;;;;;;;;;;4913486;29;20040;-90
2022/02/28 14:01:53;;;;;;;7.15;2.58;;;;;;;;;;4912666;29;20110;-90
2022/02/28 14:04:21;;;;;;;5.05;2.30;;;;;;;;;;4917623;29;20087;-90
2022/02/28 14:06:57;;;;;;;5.50;2.67;;;;;;;;;;4910487;29;20024;-90
2022/02/28 14:09:24;;;;;;;5.10;2.88;;;;;;;;;;4911614;29;20039;-90
2022/02/28 14:11:51;;;;;;;7.03;2.92;;;;;;;;;;4911330;29;20039;-91
2022/02/28 14:14:17;;;;;;;6.15;2.70;;;;;;;;;;4907553;29;20489;-89
2022/02/28 14:16:43;;;;;;;5.75;2.55;;;;;;;;;;4913320;29;20028;-90
2022/02/28 14:19:15;;;;;;;7.03;2.90;;;;;;;;;;4913742;29;20032;-89
2022/02/28 14:21:43;;;;;;;5.28;2.40;;;;;;;;;;4912676;29;20040;-90
2022/02/28 14:24:13;;;;;;;6.53;2.63;;;;;;;;;;4910337;29;20544;-90
2022/02/28 14:26:40;;;;;;;5.00;2.38;;;;;;;;;;4912389;29;20044;-90
2022/02/28 14:29:08;;;;;;;4.90;2.53;;;;;;;;;;4913065;29;20405;-91
2022/02/28 14:31:45;;;;;;;4.95;2.35;;;;;;;;;;4912090;29;20051;-88
2022/02/28 14:34:11;;;;;;;4.60;2.15;;;;;;;;;;4910144;29;20042;-90
2022/02/28 14:36:37;;;;;;;5.82;2.17;;;;;;;;;;4911823;29;20031;-90
2022/02/28 14:39:04;;;;;;;5.00;2.35;;;;;;;;;;4911581;29;20051;-90
2022/02/28 14:41:30;;;;;;;4.65;2.60;;;;;;;;;;4908238;29;20028;-88
2022/02/28 14:43:58;;;;;;;4.75;2.40;;;;;;;;;;4901409;29;20036;-90
2022/02/28 14:46:24;;;;;;;6.25;2.30;;;;;;;;;;4908556;29;20119;-89
2022/02/28 14:48:51;;;;;;;4.75;2.75;;;;;;;;;;4911751;29;20076;-89
2022/02/28 14:51:19;;;;;;;6.40;3.13;;;;;;;;;;4912176;29;20024;-89
2022/02/28 14:53:46;;;;;;;7.75;2.35;;;;;;;;;;4909546;29;20040;-90
2022/02/28 14:56:12;;;;;;;4.97;2.38;;;;;;;;;;4912257;29;20480;-89
2022/02/28 15:02:02;;;;;;;;;;;;;;;;;;;;;
2022/02/28 15:04:48;;;;;;;;;;;;;;;;;;;;;
2022/02/28 15:07:47;;;;;;;5.07;1.90;;;;;;;;;;4924786;29;20101;-89
2022/02/28 15:10:42;;;;;;;4.78;2.42;;;;;;;;;;4918655;29;20059;-88
2022/02/28 15:13:41;;;;;;;;;;;;;;;;;;;;;
2022/02/28 15:29:11;;;;;;;4.25;2.08;;;;;;;;;;4853849;29;20110;-90
2022/02/28 15:32:11;;;;;;;5.15;2.53;;;;;;;;;;4834375;29;20100;-89
2022/02/28 15:34:59;;;;;;;;;;;;;;;;;;;;;
2022/02/28 15:38:06;;;;;;;6.75;2.67;;;;;;;;;;4854755;29;20816;-90
2022/02/28 15:40:40;;;;;;;6.15;2.70;;;;;;;;;;4822500;29;20052;-89
2022/02/28 15:46:13;;;;;;;6.45;2.58;;;;;;;;;;4915150;29;20064;-89
2022/02/28 15:49:01;;;;;;;4.88;2.25;;;;;;;;;;4926792;29;20381;-90
2022/02/28 15:54:35;;;;;;;7.35;2.53;;;;;;;;;;4873208;29;20030;-91
2022/02/28 15:57:22;;;;;;;5.82;2.60;;;;;;;;;;4862451;29;20027;-90
2022/02/28 16:28:49;;;;;;;6.22;2.72;;;;;;;;;;4821337;23;20295;-90
2022/02/28 16:31:25;;;;;;;6.10;2.47;;;;;;;;;;4931536;29;20029;-87
2022/02/28 16:34:03;;;;;;;7.55;2.65;;;;;;;;;;4931788;29;20020;-89
2022/02/28 16:37:00;;;;;;;7.15;2.50;;;;;;;;;;4910847;29;20043;-90
2022/02/28 16:39:26;;;;;;;7.22;2.63;;;;;;;;;;4876579;23;20789;-86
2022/02/28 16:41:52;;;;;;;5.28;2.53;;;;;;;;;;4896614;29;20029;-86
2022/02/28 16:44:18;;;;;;;8.15;3.33;;;;;;;;;;4880681;29;20066;-85
2022/02/28 16:46:44;;;;;;;4.35;2.13;;;;;;;;;;4870701;29;20025;-86
2022/02/28 16:49:10;;;;;;;6.10;2.87;;;;;;;;;;4878219;29;20451;-86
2022/02/28 16:51:36;;;;;;;6.20;2.42;;;;;;;;;;4876823;29;20029;-86
2022/02/28 16:54:04;;;;;;;8.77;2.85;;;;;;;;;;4876628;29;20045;-87
2022/02/28 16:56:30;;;;;;;7.22;2.75;;;;;;;;;;4876533;29;20040;-86
2022/02/28 16:58:59;;;;;;;6.30;2.63;;;;;;;;;;4877245;29;20045;-85
2022/02/28 17:01:26;;;;;;;5.32;2.25;;;;;;;;;;4873436;29;20086;-86
2022/02/28 17:03:52;;;;;;;6.13;2.47;;;;;;;;;;4872160;29;20087;-86
2022/02/28 17:06:18;;;;;;;6.40;2.83;;;;;;;;;;4876873;29;20156;-86
2022/02/28 17:08:44;;;;;;;6.38;2.92;;;;;;;;;;4872181;29;20033;-86
2022/02/28 17:11:09;;;;;;;6.07;2.60;;;;;;;;;;4875766;29;20044;-86
2022/02/28 17:13:36;;;;;;;6.50;3.07;;;;;;;;;;4878508;29;20044;-86
2022/02/28 17:16:02;;;;;;;6.87;2.73;;;;;;;;;;4876233;29;20089;-86
2022/02/28 17:18:28;;;;;;;8.33;3.50;;;;;;;;;;4878509;29;20041;-86
2022/02/28 17:20:57;;;;;;;8.10;2.90;;;;;;;;;;4876016;29;20035;-86
2022/02/28 17:23:23;;;;;;;8.27;3.57;;;;;;;;;;4876083;29;20029;-86
2022/02/28 17:25:49;;;;;;;6.40;3.07;;;;;;;;;;4873496;29;20402;-86
2022/02/28 17:28:15;;;;;;;6.87;3.13;;;;;;;;;;4890012;29;20041;-86
2022/02/28 17:30:41;;;;;;;8.57;3.53;;;;;;;;;;4875058;29;20029;-86
2022/02/28 17:33:07;;;;;;;6.30;3.17;;;;;;;;;;4869409;29;20042;-86
2022/02/28 17:35:33;;;;;;;5.77;2.83;;;;;;;;;;4874944;29;20132;-86
2022/02/28 17:38:01;;;;;;;5.87;2.90;;;;;;;;;;4872507;29;20033;-85
2022/02/28 17:40:28;;;;;;;9.73;3.43;;;;;;;;;;4866557;29;20037;-85
2022/02/28 17:42:55;;;;;;;7.10;3.37;;;;;;;;;;4863117;29;20061;-86
2022/02/28 17:45:21;;;;;;;8.03;3.63;;;;;;;;;;4860001;29;20041;-84
2022/02/28 17:47:47;;;;;;;8.17;3.57;;;;;;;;;;4864548;29;20090;-84
2022/02/28 17:50:14;;;;;;;6.60;3.30;;;;;;;;;;4861112;29;20124;-84
2022/02/28 17:52:41;;;;;;;9.33;3.37;;;;;;;;;;4859457;29;20033;-84
2022/02/28 17:55:10;;;;;;;8.17;4.27;;;;;;;;;;4865932;29;20041;-84
2022/02/28 17:57:36;;;;;;;7.00;3.10;;;;;;;;;;4872813;29;20040;-84
2022/02/28 18:00:06;;;;;;;7.07;2.90;;;;;;;;;;4863131;29;20096;-85
2022/02/28 18:02:33;;;;;;;9.50;3.43;;;;;;;;;;4874928;29;20032;-86
2022/02/28 18:04:59;;;;;;;9.23;3.37;;;;;;;;;;4868047;29;20031;-86
2022/02/28 18:07:25;;;;;;;5.83;2.53;;;;;;;;;;4873508;29;20029;-85
2022/02/28 18:09:51;;;;;;;5.97;3.23;;;;;;;;;;4866673;29;20503;-86
2022/02/28 18:12:17;;;;;;;6.70;3.10;;;;;;;;;;4874142;29;20025;-85
2022/02/28 18:14:45;;;;;;;5.40;2.37;;;;;;;;;;4874054;29;20041;-86
2022/02/28 18:17:15;;;;;;;7.57;3.00;;;;;;;;;;4882498;29;20101;-85
2022/02/28 18:19:41;;;;;;;8.53;3.10;;;;;;;;;;4868104;29;20116;-85
2022/02/28 18:22:08;;;;;;;7.30;2.87;;;;;;;;;;4871748;29;20025;-85
2022/02/28 18:24:34;;;;;;;8.47;3.03;;;;;;;;;;4867187;29;20598;-86
2022/02/28 18:27:02;;;;;;;6.77;2.37;;;;;;;;;;4871850;29;20052;-85
2022/02/28 18:29:28;;;;;;;6.17;2.57;;;;;;;;;;4875431;29;20044;-86
2022/02/28 18:31:54;;;;;;;5.90;2.73;;;;;;;;;;4863696;29;20410;-86
2022/02/28 18:34:21;;;;;;;7.23;3.10;;;;;;;;;;4871439;29;20033;-85
2022/02/28 18:36:47;;;;;;;6.53;3.10;;;;;;;;;;4870704;29;20032;-84
2022/02/28 18:39:16;;;;;;;8.40;3.07;;;;;;;;;;4864889;29;20139;-85
2022/02/28 18:41:42;;;;;;;6.77;2.60;;;;;;;;;;4879978;29;20058;-86
2022/02/28 18:44:18;;;;;;;6.37;2.93;;;;;;;;;;4866431;29;20033;-86
2022/02/28 18:46:56;;;;;;;8.23;3.57;;;;;;;;;;4860775;29;20034;-86
2022/02/28 18:49:23;;;;;;;6.43;2.90;;;;;;;;;;4867223;29;20037;-85
2022/02/28 18:51:52;;;;;;;8.27;3.80;;;;;;;;;;4871679;29;20041;-86
2022/02/28 18:54:22;;;;;;;9.60;3.53;;;;;;;;;;4867349;29;20510;-86
2022/02/28 18:56:55;;;;;;;6.70;3.27;;;;;;;;;;4863229;29;20056;-85
2022/02/28 18:59:24;;;;;;;6.57;2.80;;;;;;;;;;4870204;29;20071;-86
2022/02/28 19:01:50;;;;;;;7.13;3.50;;;;;;;;;;4874988;29;20029;-85
2022/02/28 19:04:17;;;;;;;9.43;3.20;;;;;;;;;;4873677;29;20152;-85
2022/02/28 19:06:43;;;;;;;6.73;3.13;;;;;;;;;;4879752;29;20028;-86
2022/02/28 19:09:14;;;;;;;10.67;3.83;;;;;;;;;;4870718;29;20066;-86
2022/02/28 19:11:40;;;;;;;6.33;2.90;;;;;;;;;;4876905;29;20030;-85
2022/02/28 19:14:06;;;;;;;7.30;3.10;;;;;;;;;;4870406;29;20032;-85
2022/02/28 19:16:32;;;;;;;6.93;3.17;;;;;;;;;;4872838;29;20389;-85
2022/02/28 19:18:59;;;;;;;7.67;3.20;;;;;;;;;;4871433;29;20030;-85
2022/02/28 19:21:34;;;;;;;6.53;2.50;;;;;;;;;;4876574;29;20052;-85
2022/02/28 19:24:22;;;;;;;6.43;3.07;;;;;;;;;;4875664;29;20037;-85
2022/02/28 19:27:10;;;;;;;;;;;;;;;;;;;;;
2022/02/28 19:29:40;;;;;;;7.33;2.83;;;;;;;;;;4871973;29;20045;-87
2022/02/28 19:32:17;;;;;;;6.13;2.90;;;;;;;;;;4878717;29;20044;-84
2022/02/28 19:34:44;;;;;;;7.50;3.30;;;;;;;;;;4875936;29;20116;-84
2022/02/28 19:37:10;;;;;;;6.10;2.70;;;;;;;;;;4878753;29;20486;-85
2022/02/28 19:39:36;;;;;;;7.87;2.83;;;;;;;;;;4879022;29;20067;-85
2022/02/28 19:42:02;;;;;;;7.40;3.00;;;;;;;;;;4876203;29;20025;-85
2022/02/28 19:44:29;;;;;;;9.00;3.23;;;;;;;;;;4871555;29;20058;-85
2022/02/28 19:46:55;;;;;;;7.33;2.77;;;;;;;;;;4866686;29;20053;-85